Time;durP1;ratioP1;P1;durP2;ratioP2;P2;SDS_P1;SDS_P2;PMS_P1;PMS_P2;Temp;Humidity;BMP_temperature;BMP_pressure;BME280_temperature;BME280_humidity;BME280_pressure;Samples;Min_cycle;Max_cycle;Signal;HPM_P1;HPM_P2
2021/04/06 00:02:27;;;;;;;0.90;0.90;;;1.20;99.90;;;1.94;100.00;35657.53;4977824;28;20200;-70
2021/04/06 00:04:59;;;;;;;0.70;0.60;;;1.20;99.90;;;2.00;100.00;36862.44;4978024;28;20195;-70
2021/04/06 00:07:31;;;;;;;0.70;0.60;;;1.30;99.90;;;2.04;100.00;38456.78;4976229;28;20184;-70
2021/04/06 00:10:05;;;;;;;0.75;0.70;;;1.40;99.90;;;2.17;100.00;40179.47;4977159;28;20185;-70
2021/04/06 00:12:33;;;;;;;0.80;0.70;;;1.50;99.90;;;2.15;100.00;40907.56;4977609;28;20255;-68
2021/04/06 00:15:01;;;;;;;0.70;0.60;;;1.50;99.90;;;2.22;100.00;42191.97;4977330;28;20192;-68
2021/04/06 00:17:30;;;;;;;0.70;0.60;;;1.60;99.90;;;2.04;100.00;40783.59;4976956;28;20228;-68
2021/04/06 00:20:00;;;;;;;0.77;0.70;;;1.60;99.90;;;2.07;100.00;41078.16;4977635;28;20200;-68
2021/04/06 00:22:30;;;;;;;0.70;0.70;;;1.60;99.90;;;2.08;100.00;40726.53;4977561;28;20228;-68
2021/04/06 00:24:59;;;;;;;0.70;0.70;;;1.60;99.90;;;2.23;100.00;42099.53;4977187;28;20535;-68
2021/04/06 00:27:30;;;;;;;0.80;0.77;;;1.60;99.90;;;2.26;100.00;42860.03;4975892;28;20208;-68
2021/04/06 00:30:05;;;;;;;0.70;0.70;;;1.70;99.90;;;2.22;100.00;42944.69;4976948;28;20246;-68
2021/04/06 00:32:32;;;;;;;0.70;0.60;;;1.70;99.90;;;2.32;100.00;43517.31;4975586;28;20210;-68
2021/04/06 00:35:02;;;;;;;0.70;0.70;;;1.70;99.90;;;2.27;100.00;43293.75;4977492;28;20192;-68
2021/04/06 00:37:32;;;;;;;0.70;0.60;;;1.70;99.90;;;2.48;100.00;44698.91;4977270;28;20208;-69
2021/04/06 00:40:08;;;;;;;0.80;0.80;;;1.80;99.90;;;2.41;100.00;44061.28;4976841;28;20243;-68
2021/04/06 00:42:36;;;;;;;0.70;0.60;;;1.80;99.90;;;2.52;100.00;44523.09;4977547;28;20212;-68
2021/04/06 00:45:10;;;;;;;0.80;0.70;;;1.80;99.90;;;2.56;100.00;44057.72;4976300;28;20324;-68
2021/04/06 00:47:38;;;;;;;0.70;0.70;;;1.80;99.90;;;2.57;100.00;42931.28;4976826;28;20206;-68
2021/04/06 00:50:11;;;;;;;0.70;0.60;;;1.90;99.90;;;2.51;100.00;41825.44;4976976;28;20216;-68
2021/04/06 00:52:44;;;;;;;0.70;0.60;;;1.90;99.90;;;2.58;100.00;40458.16;4976559;28;20183;-69
2021/04/06 00:55:16;;;;;;;0.80;0.70;;;2.00;99.90;;;2.64;100.00;39578.19;4957522;29;20219;-69
2021/04/06 00:57:45;;;;;;;0.70;0.60;;;2.00;99.90;;;2.61;100.00;37401.03;4957358;28;20217;-68
2021/04/06 01:00:18;;;;;;;0.70;0.60;;;2.10;99.90;;;2.64;100.00;34852.50;4973624;28;20197;-68
2021/04/06 01:03:02;;;;;;;0.70;0.60;;;2.20;99.90;;;2.64;100.00;32212.75;4974690;28;20302;-68
2021/04/06 01:05:31;;;;;;;0.80;0.70;;;2.10;99.90;;;2.69;100.00;30411.94;4976880;28;20580;-68
2021/04/06 01:08:03;;;;;;;0.80;0.70;;;2.20;99.90;;;2.65;100.00;27349.88;4976390;28;20247;-69
2021/04/06 01:10:33;;;;;;;0.70;0.70;;;2.10;99.90;;;2.66;100.00;25481.56;4976827;28;20566;-68
2021/04/06 01:13:01;;;;;;;0.70;0.63;;;2.10;99.90;;;2.60;100.00;23372.72;4991289;28;20207;-68
2021/04/06 01:15:32;;;;;;;0.70;0.70;;;2.10;99.90;;;2.63;100.00;22582.28;4976490;28;20251;-68
2021/04/06 01:17:59;;;;;;;0.70;0.60;;;2.10;99.90;;;2.79;100.00;22138.22;4975892;28;20212;-69
2021/04/06 01:20:26;;;;;;;0.70;0.70;;;2.10;99.90;;;2.80;100.00;19531.09;4976076;28;20237;-69
2021/04/06 01:22:57;;;;;;;0.70;0.60;;;2.20;99.90;;;2.84;100.00;18428.56;4976525;28;20220;-68
2021/04/06 01:25:32;;;;;;;0.80;0.70;;;2.20;99.90;;;2.96;100.00;16432.81;4976333;28;20192;-68
2021/04/06 01:28:05;;;;;;;0.70;0.70;;;2.30;99.90;;;2.90;100.00;13917.63;4976367;28;20207;-68
2021/04/06 01:30:43;;;;;;;0.70;0.60;;;2.30;99.90;;;2.90;100.00;12033.13;4975287;28;20200;-68
2021/04/06 01:33:11;;;;;;;0.73;0.70;;;2.30;99.90;;;2.87;100.00;10813.19;4975851;28;20188;-67
2021/04/06 01:35:38;;;;;;;0.70;0.60;;;2.30;99.90;;;2.90;100.00;10501.72;4975485;28;20560;-68
2021/04/06 01:38:06;;;;;;;0.80;0.70;;;2.20;99.90;;;2.99;100.00;9894.34;4975196;28;20258;-68
2021/04/06 01:40:34;;;;;;;0.70;0.70;;;2.20;99.90;;;2.98;100.00;7550.00;4975098;28;20296;-68
2021/04/06 01:43:01;;;;;;;0.70;0.60;;;2.30;99.90;;;2.97;100.00;5711.22;4976017;28;20221;-68
2021/04/06 01:45:30;;;;;;;0.70;0.70;;;2.30;99.90;;;2.90;100.00;4241.66;4975738;28;20195;-68
2021/04/06 01:47:57;;;;;;;0.70;0.60;;;2.20;99.90;;;2.94;100.00;4419.06;4974161;28;20193;-68
2021/04/06 01:50:25;;;;;;;0.75;0.70;;;2.20;99.90;;;2.91;100.00;4840.06;4975620;28;20212;-68
2021/04/06 01:52:52;;;;;;;0.70;0.60;;;2.20;99.90;;;2.87;100.00;3952.06;4975717;28;20203;-69
2021/04/06 01:55:31;;;;;;;0.70;0.70;;;2.20;99.90;;;2.97;100.00;4302.38;4974503;28;20734;-69
2021/04/06 01:58:00;;;;;;;0.70;0.60;;;2.20;99.90;;;2.93;100.00;3504.16;4973263;28;20230;-68
2021/04/06 02:00:46;;;;;;;0.70;0.60;;;2.20;99.90;;;2.87;100.00;2905.50;4974824;28;20223;-68
2021/04/06 02:03:14;;;;;;;0.70;0.70;;;2.20;99.90;;;2.82;100.00;4163.28;4973596;28;20216;-68
2021/04/06 02:05:43;;;;;;;0.70;0.60;;;2.20;99.90;;;2.81;100.00;3507.78;4974269;28;20204;-68
2021/04/06 02:08:15;;;;;;;1.27;1.17;;;2.20;99.90;;;2.82;100.00;5212.69;4975540;28;20607;-70
2021/04/06 02:10:43;;;;;;;0.77;0.70;;;2.20;99.90;;;2.89;100.00;5807.31;4975407;28;20633;-70
2021/04/06 02:13:15;;;;;;;0.70;0.70;;;2.10;99.90;;;2.79;100.00;6361.78;4975109;28;20307;-69
2021/04/06 02:15:55;;;;;;;0.80;0.70;;;2.10;99.90;;;2.71;100.00;5948.94;4975473;28;20680;-68
2021/04/06 02:18:23;;;;;;;0.70;0.60;;;2.00;99.90;;;2.75;100.00;5869.81;4974530;28;20207;-68
2021/04/06 02:20:55;;;;;;;0.70;0.65;;;1.90;99.90;;;2.63;100.00;7967.59;4975344;28;20223;-68
2021/04/06 02:23:23;;;;;;;0.70;0.60;;;1.90;99.90;;;2.69;100.00;8971.78;4975384;28;20641;-68
2021/04/06 02:25:52;;;;;;;0.70;0.70;;;1.90;99.90;;;2.59;100.00;10127.56;4975083;28;20274;-68
2021/04/06 02:28:22;;;;;;;0.70;0.60;;;1.80;99.90;;;2.51;100.00;11164.03;4974617;28;20208;-69
2021/04/06 02:30:55;;;;;;;0.80;0.70;;;1.80;99.90;;;2.46;100.00;12021.69;4972789;28;20199;-68
2021/04/06 02:33:24;;;;;;;0.70;0.60;;;1.80;99.90;;;2.50;100.00;13158.91;4974063;28;20192;-68
2021/04/06 02:35:59;;;;;;;0.70;0.60;;;1.80;99.90;;;2.55;100.00;13642.63;4974730;28;20195;-68
2021/04/06 02:38:28;;;;;;;1.08;0.98;;;1.80;99.90;;;2.63;100.00;13839.72;4975095;28;20202;-69
2021/04/06 02:41:14;;;;;;;0.70;0.70;;;1.80;99.90;;;2.38;100.00;12444.16;4975069;28;20573;-68
2021/04/06 02:43:48;;;;;;;0.70;0.70;;;1.80;99.90;;;2.49;100.00;12931.34;4971297;28;20767;-68
2021/04/06 02:46:19;;;;;;;0.70;0.60;;;1.80;99.90;;;2.54;100.00;12475.66;4978675;28;20203;-68
2021/04/06 02:48:50;;;;;;;0.70;0.60;;;1.90;99.90;;;2.61;100.00;11451.28;4966418;28;20223;-68
2021/04/06 02:51:18;;;;;;;0.70;0.57;;;1.90;99.90;;;2.68;100.00;10549.03;4973642;28;20696;-68
2021/04/06 02:53:48;;;;;;;0.80;0.73;;;1.90;99.90;;;2.53;100.00;9390.13;4974781;28;20189;-69
2021/04/06 02:56:31;;;;;;;0.80;0.80;;;1.80;99.90;;;2.35;100.00;8887.34;4974386;28;20208;-67
2021/04/06 02:59:17;;;;;;;0.70;0.60;;;1.70;99.90;;;2.39;100.00;10991.44;4974351;28;20204;-68
2021/04/06 03:01:45;;;;;;;0.70;0.60;;;1.70;99.90;;;2.43;100.00;11863.63;4974456;28;20234;-69
2021/04/06 03:04:23;;;;;;;0.70;0.60;;;1.70;99.90;;;2.32;100.00;11808.31;4974394;28;20612;-68
2021/04/06 03:06:52;;;;;;;0.70;0.70;;;1.70;99.90;;;2.09;100.00;12002.09;4974545;28;20187;-68
2021/04/06 03:09:21;;;;;;;0.70;0.70;;;1.60;99.90;;;2.02;100.00;13270.47;4974138;28;20181;-69
2021/04/06 03:11:50;;;;;;;0.70;0.70;;;1.50;99.90;;;2.02;100.00;13632.53;4974648;28;20314;-68
2021/04/06 03:14:24;;;;;;;0.70;0.70;;;1.50;99.90;;;1.91;100.00;13457.28;4974279;28;20219;-68
2021/04/06 03:16:53;;;;;;;0.70;0.60;;;1.40;99.90;;;1.90;100.00;13739.03;4974250;28;20190;-68
2021/04/06 03:19:29;;;;;;;0.70;0.70;;;1.40;99.90;;;1.92;100.00;14021.50;4974931;28;20219;-68
2021/04/06 03:21:56;;;;;;;0.70;0.60;;;1.40;99.90;;;1.96;100.00;14007.56;4974630;28;20172;-68
2021/04/06 03:24:23;;;;;;;0.70;0.60;;;1.50;99.90;;;2.05;100.00;12520.09;4974228;28;20247;-69
2021/04/06 03:26:51;;;;;;;0.80;0.77;;;1.50;99.90;;;2.13;100.00;11204.72;4972654;28;20688;-68
2021/04/06 03:29:18;;;;;;;0.70;0.65;;;1.50;99.90;;;2.02;100.00;8865.53;4974502;28;20630;-69
2021/04/06 03:31:46;;;;;;;0.73;0.70;;;1.50;99.90;;;2.01;100.00;7930.75;4974221;28;20200;-68
2021/04/06 03:34:13;;;;;;;0.70;0.68;;;1.40;99.90;;;2.09;100.00;7785.38;4974304;28;20188;-69
2021/04/06 03:36:40;;;;;;;0.70;0.70;;;1.50;99.90;;;2.12;100.00;7424.50;4974382;28;20220;-69
2021/04/06 03:39:09;;;;;;;0.70;0.60;;;1.50;99.90;;;2.16;100.00;7567.28;4973942;28;20672;-69
2021/04/06 03:41:36;;;;;;;0.70;0.60;;;1.50;99.90;;;2.10;100.00;7374.28;4974067;28;20549;-70
2021/04/06 03:44:05;;;;;;;0.70;0.60;;;1.50;99.90;;;2.12;100.00;7593.97;4974267;28;20204;-69
2021/04/06 03:46:33;;;;;;;0.80;0.70;;;1.50;99.90;;;2.03;100.00;7198.69;4972774;28;20199;-68
2021/04/06 03:49:20;;;;;;;0.70;0.60;;;1.50;99.90;;;1.89;100.00;6613.41;4974375;28;20219;-69
2021/04/06 03:51:49;;;;;;;0.70;0.60;;;1.40;99.90;;;1.91;100.00;6563.94;4975119;28;20200;-69
2021/04/06 03:54:44;;;;;;;0.70;0.65;;;1.40;99.90;;;1.91;100.00;6289.91;4973781;28;20595;-69
2021/04/06 03:57:29;;;;;;;0.70;0.70;;;1.30;99.90;;;1.73;100.00;5134.53;4972553;28;20250;-69
2021/04/06 03:59:56;;;;;;;0.70;0.60;;;1.20;99.90;;;1.72;100.00;4606.78;4973590;28;20188;-68
2021/04/06 04:02:23;;;;;;;0.70;0.60;;;1.10;99.90;;;1.62;100.00;3344.44;4988413;28;20220;-68
2021/04/06 04:04:52;;;;;;;0.70;0.60;;;1.10;99.90;;;1.71;100.00;2758.50;4972740;28;20251;-68
2021/04/06 04:07:19;;;;;;;0.70;0.60;;;1.10;99.90;;;1.72;100.00;2303.56;4973530;28;20280;-68
2021/04/06 04:09:46;;;;;;;0.80;0.70;;;1.20;99.90;;;1.85;100.00;2130.78;4973085;28;20189;-68
2021/04/06 04:12:14;;;;;;;0.70;0.60;;;1.20;99.90;;;1.88;100.00;2029.13;4973616;28;20240;-68
2021/04/06 04:14:40;;;;;;;0.70;0.60;;;1.20;99.90;;;1.88;100.00;1680.94;4972678;28;20211;-68
2021/04/06 04:17:09;;;;;;;0.80;0.70;;;1.30;99.90;;;1.80;100.00;1043.81;4973515;28;20274;-68
2021/04/06 04:19:36;;;;;;;0.70;0.70;;;1.20;99.90;;;1.79;100.00;715.59;4973997;28;20188;-69
2021/04/06 04:22:04;;;;;;;0.70;0.60;;;1.20;99.90;;;1.97;100.00;2786.13;4976037;28;20200;-69
2021/04/06 04:24:31;;;;;;;0.70;0.60;;;1.30;99.90;;;1.99;100.00;2438.09;4977723;28;20188;-69
2021/04/06 04:26:58;;;;;;;0.73;0.70;;;1.30;99.90;;;1.97;100.00;2161.72;4977833;28;20216;-69
2021/04/06 04:29:25;;;;;;;0.90;0.80;;;1.30;99.90;;;1.90;100.00;1730.84;4975661;28;20212;-69
2021/04/06 04:31:52;;;;;;;0.70;0.60;;;1.30;99.90;;;2.00;100.00;1741.72;4977052;28;20684;-68
2021/04/06 04:34:19;;;;;;;0.70;0.60;;;1.30;99.90;;;2.05;100.00;1707.34;4977260;28;20203;-68
2021/04/06 04:36:46;;;;;;;0.75;0.70;;;1.40;99.90;;;2.04;100.00;1575.44;4958057;28;20181;-68
2021/04/06 04:39:14;;;;;;;0.70;0.70;;;1.40;99.90;;;2.10;100.00;1797.38;4975552;28;20211;-68
2021/04/06 04:41:41;;;;;;;0.70;0.60;;;1.40;99.90;;;1.94;100.00;676.97;4977180;28;20207;-68
2021/04/06 04:44:08;;;;;;;0.70;0.70;;;1.30;99.90;;;1.74;100.00;-375.63;4976681;28;20185;-69
2021/04/06 04:46:35;;;;;;;0.70;0.70;;;1.30;99.90;;;1.85;100.00;278.56;4976558;28;20184;-68
2021/04/06 04:49:02;;;;;;;0.70;0.65;;;1.30;99.90;;;1.89;100.00;139.69;4976766;28;20192;-68
2021/04/06 04:51:30;;;;;;;0.70;0.70;;;1.30;99.90;;;1.91;100.00;-59.06;4976930;28;20184;-68
2021/04/06 04:53:57;;;;;;;0.70;0.65;;;1.30;99.90;;;1.76;100.00;-1091.00;4977116;28;20185;-69
2021/04/06 04:56:25;;;;;;;0.70;0.60;;;1.20;99.90;;;1.77;100.00;-1130.75;4976211;28;20251;-68
2021/04/06 04:58:51;;;;;;;0.70;0.70;;;1.20;99.90;;;1.55;100.00;-2296.06;4976024;28;20197;-68
2021/04/06 05:01:18;;;;;;;0.70;0.60;;;1.10;99.90;;;1.56;100.00;-2521.94;4975915;28;20184;-68
2021/04/06 05:03:45;;;;;;;0.88;0.88;;;1.10;99.90;;;1.49;100.00;-2951.41;4976580;28;20235;-68
2021/04/06 05:06:13;;;;;;;0.70;0.60;;;1.00;99.90;;;1.56;100.00;-2802.41;4977228;28;20199;-68
2021/04/06 05:08:40;;;;;;;0.70;0.70;;;1.00;99.90;;;1.64;100.00;-2995.91;4977064;28;20184;-71
2021/04/06 05:11:08;;;;;;;0.70;0.65;;;1.10;99.90;;;1.88;100.00;-2523.75;4976488;28;20533;-68
2021/04/06 05:13:36;;;;;;;0.70;0.68;;;1.20;99.90;;;1.90;100.00;-3109.75;4976352;28;20617;-68
2021/04/06 05:16:04;;;;;;;0.70;0.60;;;1.20;99.90;;;1.94;100.00;-3814.88;4976402;28;20281;-68
2021/04/06 05:18:31;;;;;;;0.70;0.60;;;1.20;99.90;;;1.85;100.00;-4509.88;4974880;28;20215;-68
2021/04/06 05:20:58;;;;;;;0.70;0.60;;;1.30;99.90;;;1.98;100.00;-4013.50;4976753;28;20204;-68
2021/04/06 05:23:25;;;;;;;0.75;0.70;;;1.30;99.90;;;2.05;100.00;-4798.06;4975166;28;20556;-68
2021/04/06 05:25:53;;;;;;;0.70;0.60;;;1.30;99.90;;;2.02;100.00;-5684.06;4973621;28;20192;-69
2021/04/06 05:28:21;;;;;;;0.70;0.68;;;1.40;99.90;;;1.94;100.00;-5676.41;4975501;28;20684;-68
2021/04/06 05:30:48;;;;;;;0.70;0.60;;;1.40;99.90;;;2.12;100.00;-6098.84;4974180;28;20255;-69
2021/04/06 05:33:20;;;;;;;0.70;0.60;;;1.40;99.90;;;2.07;100.00;-7289.59;4972813;28;20204;-68
2021/04/06 05:35:47;;;;;;;0.70;0.63;;;1.50;99.90;;;2.12;100.00;-7860.41;4974007;28;21107;-68
2021/04/06 05:38:14;;;;;;;0.70;0.60;;;1.50;99.90;;;2.05;100.00;-8866.66;4974555;28;20216;-69
2021/04/06 05:40:41;;;;;;;0.70;0.70;;;1.40;99.90;;;2.01;100.00;-9473.66;4975751;28;20204;-68
2021/04/06 05:43:09;;;;;;;0.80;0.70;;;1.40;99.90;;;1.92;100.00;-9671.19;4976019;28;20216;-70
2021/04/06 05:45:39;;;;;;;0.80;0.70;;;1.40;99.90;;;1.94;100.00;-9250.03;4975086;28;20227;-70
2021/04/06 05:48:12;;;;;;;0.70;0.70;;;1.30;99.90;;;1.94;100.00;-9311.97;4974022;28;20204;-68
2021/04/06 05:50:42;;;;;;;0.70;0.60;;;1.40;99.90;;;2.07;100.00;-8638.72;4975079;28;20675;-68
2021/04/06 05:53:10;;;;;;;0.70;0.60;;;1.40;99.90;;;2.23;100.00;-8679.69;5007244;28;20188;-68
2021/04/06 05:55:37;;;;;;;2.45;1.98;;;1.50;99.90;;;2.44;100.00;-9586.78;4974555;28;20194;-69
2021/04/06 05:58:04;;;;;;;0.70;0.65;;;1.60;99.90;;;2.50;100.00;-10380.97;4973776;28;20224;-69
2021/04/06 06:00:31;;;;;;;0.75;0.70;;;1.70;99.90;;;2.60;100.00;-10642.53;4974028;28;20719;-69
2021/04/06 06:02:59;;;;;;;0.80;0.70;;;1.80;99.90;;;2.82;100.00;-10768.97;4974662;28;20283;-68
2021/04/06 06:05:27;;;;;;;0.70;0.70;;;1.90;99.90;;;2.76;100.00;-10659.16;4972366;28;20200;-68
2021/04/06 06:07:55;;;;;;;0.70;0.60;;;2.00;99.90;;;2.81;100.00;-10188.31;4975704;28;20196;-69
2021/04/06 06:10:33;;;;;;;0.80;0.77;;;2.00;99.90;;;2.84;100.00;-11069.44;4975446;28;20184;-68
2021/04/06 06:13:23;;;;;;;0.70;0.60;;;2.00;99.90;;;2.87;100.00;-10481.75;4974310;28;20215;-69
2021/04/06 06:16:12;;;;;;;0.70;0.60;;;2.00;99.90;;;2.92;100.00;-8476.50;4974862;28;20189;-69
2021/04/06 06:19:00;;;;;;;0.70;0.70;;;2.00;99.90;;;3.03;100.00;-8020.31;4965952;28;20208;-68
2021/04/06 06:21:46;;;;;;;0.75;0.70;;;2.10;99.90;;;3.21;100.00;-7494.72;4975062;28;20247;-69
2021/04/06 06:24:25;;;;;;;0.70;0.60;;;2.10;99.90;;;3.38;100.00;-6456.59;4975403;28;20180;-69
2021/04/06 06:26:55;;;;;;;0.70;0.60;;;2.30;99.90;;;3.48;100.00;-6141.13;4974523;28;20204;-68
2021/04/06 06:29:41;;;;;;;0.80;0.77;;;2.40;99.90;;;3.52;100.00;-6034.31;4974100;28;20189;-68
2021/04/06 06:32:19;;;;;;;0.70;0.60;;;2.40;99.90;;;3.32;100.00;-7962.66;4972870;28;20243;-70
2021/04/06 06:34:49;;;;;;;0.70;0.70;;;2.30;99.90;;;3.48;100.00;-7212.94;4974297;28;20192;-68
2021/04/06 06:37:26;;;;;;;0.70;0.60;;;2.30;99.90;;;3.38;100.00;-7610.13;4973249;28;20657;-68
2021/04/06 06:40:00;;;;;;;0.70;0.60;;;2.20;99.90;;;3.33;100.00;-8251.00;4972420;28;20219;-70
2021/04/06 06:42:33;;;;;;;0.70;0.70;;;2.20;99.90;;;3.47;100.00;-7016.41;4973418;28;20239;-68
2021/04/06 06:45:03;;;;;;;0.70;0.60;;;2.30;99.90;;;3.39;100.00;-8745.91;4972818;28;20194;-68
2021/04/06 06:47:31;;;;;;;0.70;0.68;;;2.20;99.90;;;3.17;100.00;-6274.22;4972523;28;20271;-68
2021/04/06 06:50:09;;;;;;;0.70;0.70;;;2.30;99.90;;;3.31;100.00;-1430.22;4974892;28;20192;-67
2021/04/06 06:52:38;;;;;;;0.70;0.60;;;2.30;99.90;;;3.15;100.00;-693.94;4974290;28;20208;-67
2021/04/06 06:55:18;;;;;;;0.80;0.80;;;2.20;99.90;;;3.44;100.00;-2408.38;4974061;28;20291;-68
2021/04/06 06:57:47;;;;;;;0.80;0.70;;;2.20;99.90;;;3.56;100.00;-4153.34;4974047;28;20659;-68
2021/04/06 07:00:17;;;;;;;0.70;0.60;;;2.50;99.90;;;3.79;100.00;-4965.03;4973379;28;20196;-68
2021/04/06 07:02:45;;;;;;;0.80;0.70;;;2.60;99.90;;;3.91;100.00;-7344.63;4974795;28;20190;-68
2021/04/06 07:05:19;;;;;;;0.70;0.57;;;2.50;99.90;;;3.97;100.00;-10836.53;4974267;28;20188;-68
2021/04/06 07:08:00;;;;;;;0.70;0.60;;;2.60;99.90;;;4.04;100.00;-8044.53;4974656;28;20598;-68
2021/04/06 07:10:30;;;;;;;0.70;0.60;;;2.80;99.90;;;4.69;100.00;-6477.00;4973366;28;20683;-68
2021/04/06 07:13:05;;;;;;;0.70;0.60;;;3.30;99.90;;;4.69;100.00;-9585.25;4974073;28;20208;-68
2021/04/06 07:15:36;;;;;;;0.70;0.60;;;3.40;99.90;;;4.74;100.00;-9993.97;4973831;28;20191;-68
2021/04/06 07:18:07;;;;;;;0.70;0.60;;;3.40;99.90;;;4.92;100.00;-16821.06;4973825;28;20255;-69
2021/04/06 07:20:40;;;;;;;0.70;0.60;;;3.10;99.90;;;4.92;100.00;-15170.75;4974460;28;20192;-68
2021/04/06 07:23:17;;;;;;;0.70;0.60;;;3.40;99.90;;;4.91;100.00;-16773.75;4973823;28;20196;-67
2021/04/06 07:25:45;;;;;;;0.70;0.60;;;3.30;99.90;;;4.56;100.00;-20467.03;4973083;28;20207;-68
2021/04/06 07:28:16;;;;;;;0.70;0.60;;;2.90;99.90;;;4.64;100.00;-20360.03;4987670;28;20223;-68
2021/04/06 07:30:44;;;;;;;0.70;0.70;;;3.30;99.90;;;5.30;100.00;-20079.63;4972443;28;20207;-68
2021/04/06 07:33:15;;;;;;;0.70;0.60;;;3.70;99.90;;;5.08;100.00;-20820.56;4973736;28;20544;-68
2021/04/06 07:35:43;;;;;;;0.90;0.90;;;3.50;99.90;;;4.72;100.00;-20810.53;4974746;28;20199;-68
2021/04/06 07:38:10;;;;;;;0.70;0.60;;;3.30;99.90;;;4.36;100.00;-20800.94;4972949;28;20283;-69
2021/04/06 07:40:39;;;;;;;0.80;0.77;;;3.10;99.90;;;4.88;100.00;-20703.94;4974288;28;20644;-68
2021/04/06 07:43:07;;;;;;;0.70;0.60;;;3.40;99.90;;;5.46;100.00;-20163.13;4974063;28;20222;-69
2021/04/06 07:45:40;;;;;;;0.70;0.65;;;4.10;99.90;;;6.18;100.00;-20850.47;4973512;28;20185;-68
2021/04/06 07:48:10;;;;;;;0.70;0.60;;;4.00;99.90;;;6.65;100.00;-20863.25;4973425;28;20636;-68
2021/04/06 07:50:41;;;;;;;0.70;0.60;;;4.50;99.90;;;7.31;100.00;-20881.19;4969731;28;20251;-69
2021/04/06 07:53:25;;;;;;;0.70;0.60;;;5.10;99.90;;;6.90;100.00;-20869.94;4958880;28;20422;-68
2021/04/06 07:55:55;;;;;;;0.70;0.60;;;4.70;99.90;;;6.27;100.00;-20852.97;4976409;28;20424;-68
2021/04/06 07:58:48;;;;;;;0.70;0.60;;;4.40;99.90;;;6.57;100.00;-20861.03;4977102;28;20546;-69
2021/04/06 08:01:25;;;;;;;0.70;0.60;;;4.20;99.90;;;6.36;100.00;-20855.22;4976304;28;20447;-68
2021/04/06 08:04:06;;;;;;;0.70;0.60;;;4.10;99.90;;;5.72;100.00;-20837.81;4977866;28;20442;-68
2021/04/06 08:06:45;;;;;;;0.70;0.60;;;4.00;99.90;;;5.45;100.00;-20830.44;4978006;28;20425;-67
2021/04/06 08:09:42;;;;;;;0.70;0.60;;;3.80;99.90;;;5.47;100.00;-20831.13;4976396;28;20197;-67
2021/04/06 08:12:14;;;;;;;0.70;0.57;;;3.80;99.90;;;5.48;100.00;-20831.41;4977658;28;20510;-68
2021/04/06 08:14:44;;;;;;;0.70;0.60;;;4.00;99.90;;;5.44;100.00;-17856.31;4977647;28;20283;-68
2021/04/06 08:17:46;;;;;;;0.70;0.60;;;3.70;99.90;;;6.70;100.00;-11925.47;4976891;28;20196;-71
2021/04/06 08:20:44;;;;;;;0.70;0.60;;;4.40;99.90;;;7.78;100.00;-14942.94;4975790;28;20200;-68
2021/04/06 08:23:43;;;;;;;0.70;0.60;;;5.30;99.90;;;7.22;100.00;-20878.81;4975667;28;20502;-69
2021/04/06 08:26:28;;;;;;;0.70;0.50;;;4.50;99.90;;;6.50;100.00;-20284.94;4960230;28;20468;-68
2021/04/06 08:29:17;;;;;;;0.70;0.60;;;4.60;99.90;;;7.29;100.00;-19906.91;4973626;28;21562;-68
2021/04/06 08:31:44;;;;;;;0.70;0.50;;;4.80;99.90;;;8.31;100.00;-20908.38;4977233;28;20435;-67
2021/04/06 08:34:33;;;;;;;0.70;0.50;;;5.50;99.90;;;7.63;100.00;-20889.94;4975964;28;20423;-68
2021/04/06 08:37:12;;;;;;;0.70;0.50;;;5.10;99.90;;;7.39;100.00;-20883.41;4975560;28;20882;-68
2021/04/06 08:39:40;;;;;;;0.70;0.60;;;4.80;99.90;;;6.63;100.00;-20862.56;5007603;28;20526;-68
2021/04/06 08:42:14;;;;;;;0.70;0.60;;;4.30;99.90;;;6.41;100.00;-20856.59;4976838;28;20583;-69
2021/04/06 08:44:47;;;;;;;0.70;0.60;;;4.40;99.90;;;7.03;100.00;-20873.53;4976286;28;21063;-68
2021/04/06 08:47:37;;;;;;;0.70;0.60;;;4.70;99.90;;;7.90;100.00;-20897.28;4977227;28;20440;-69
2021/04/06 08:50:08;;;;;;;0.70;0.60;;;5.50;99.90;;;7.91;100.00;-20897.56;4977591;28;20412;-68
2021/04/06 08:52:35;;;;;;;0.70;0.60;;;5.40;99.90;;;7.15;100.00;-20876.88;4977002;28;20521;-68
2021/04/06 08:55:12;;;;;;;0.70;0.60;;;4.90;99.90;;;7.23;100.00;-20879.09;4976739;28;20471;-69
2021/04/06 08:57:40;;;;;;;0.70;0.60;;;4.80;99.90;;;6.88;100.00;-20869.38;4976035;28;20477;-68
2021/04/06 09:00:13;;;;;;;0.70;0.60;;;4.70;99.90;;;6.81;100.00;-20867.56;4975993;28;20496;-68
2021/04/06 09:02:41;;;;;;;0.70;0.60;;;5.00;99.90;;;8.03;100.00;-20900.75;4976549;28;20443;-69
2021/04/06 09:05:10;;;;;;;0.70;0.60;;;5.40;99.90;;;7.74;100.00;-20893.00;4975975;28;20436;-69
2021/04/06 09:07:39;;;;;;;0.70;0.50;;;5.40;99.90;;;7.07;100.00;-20874.53;4976470;28;20408;-69
2021/04/06 09:10:12;;;;;;;0.70;0.60;;;5.10;99.90;;;6.98;100.00;-20872.16;4976302;28;20424;-68
2021/04/06 09:12:43;;;;;;;0.70;0.60;;;4.70;99.90;;;6.06;100.00;-20847.13;4976015;28;20542;-69
2021/04/06 09:15:13;;;;;;;0.70;0.60;;;4.70;99.90;;;7.11;100.00;-20875.63;4976214;28;20756;-68
2021/04/06 09:17:41;;;;;;;0.70;0.50;;;4.90;99.90;;;7.21;100.00;-20878.41;4975372;28;20442;-69
2021/04/06 09:20:11;;;;;;;0.70;0.60;;;5.60;99.90;;;8.16;100.00;-20904.38;4976141;28;20466;-68
2021/04/06 09:22:39;;;;;;;0.70;0.60;;;5.50;99.90;;;8.24;100.00;-20906.59;4976464;28;20416;-69
2021/04/06 09:25:20;;;;;;;2.00;1.43;;;5.50;99.90;;;7.44;100.00;-20884.81;4975534;28;20537;-69
2021/04/06 09:27:55;;;;;;;0.70;0.60;;;5.00;99.90;;;6.89;100.00;-20869.66;4975886;28;20491;-68
2021/04/06 09:30:34;;;;;;;0.70;0.60;;;4.70;99.90;;;6.85;100.00;-20868.53;4990018;28;20462;-68
2021/04/06 09:33:14;;;;;;;0.70;0.60;;;5.00;99.90;;;9.25;100.00;-20933.75;4975482;28;20439;-69
2021/04/06 09:35:47;;;;;;;0.70;0.60;;;6.40;99.90;;;9.97;100.00;-20953.44;4974433;28;20435;-69
2021/04/06 09:38:18;;;;;;;0.70;0.60;;;6.20;99.90;;;8.54;100.00;-20914.63;4967115;28;20462;-69
2021/04/06 09:40:46;;;;;;;0.80;0.60;;;5.60;99.90;;;9.97;100.00;-20953.28;4975673;28;20438;-69
2021/04/06 09:43:13;;;;;;;0.70;0.60;;;6.20;99.90;;;9.38;100.00;-20937.38;4975955;28;20461;-68
2021/04/06 09:45:42;;;;;;;0.80;0.70;;;6.60;99.90;;;9.99;100.00;-20953.84;4975442;28;20473;-69
2021/04/06 09:48:13;;;;;;;0.70;0.60;;;6.60;99.90;;;9.49;100.00;-20940.41;4974741;28;20442;-69
2021/04/06 09:50:54;;;;;;;0.70;0.63;;;6.00;99.90;;;8.96;100.00;-20926.00;4975723;28;20433;-68
2021/04/06 09:53:21;;;;;;;0.70;0.57;;;6.00;99.90;;;10.70;100.00;-20973.09;4975975;28;20431;-68
2021/04/06 09:55:48;;;;;;;0.70;0.60;;;7.40;99.90;;;10.62;100.00;-20971.00;4975565;28;20517;-68
2021/04/06 09:58:17;;;;;;;0.70;0.70;;;7.00;94.90;;;9.89;100.00;-20951.34;4974823;28;20586;-68
2021/04/06 10:00:45;;;;;;;0.70;0.63;;;6.40;95.80;;;8.81;100.00;-20921.97;4975002;28;20916;-68
2021/04/06 10:03:17;;;;;;;0.70;0.60;;;6.50;97.00;;;10.88;100.00;-20978.06;4975527;28;20441;-68
2021/04/06 10:05:46;;;;;;;0.70;0.60;;;7.40;95.40;;;12.26;100.00;-21015.50;4975274;28;20935;-68
2021/04/06 10:08:24;;;;;;;0.70;0.60;;;7.60;92.60;;;11.76;100.00;-21001.84;4973053;28;20420;-68
2021/04/06 10:10:51;;;;;;;0.70;0.60;;;8.10;92.10;;;10.71;100.00;-20973.34;4973675;28;20430;-68
2021/04/06 10:13:19;;;;;;;0.70;0.60;;;7.30;92.10;;;11.25;100.00;-20988.00;4974720;28;20450;-68
2021/04/06 10:15:46;;;;;;;0.80;0.70;;;7.30;91.20;;;10.25;100.00;-20960.91;4973344;28;20439;-68
2021/04/06 10:18:16;;;;;;;0.70;0.60;;;6.90;89.50;;;8.84;100.00;-20922.69;4974470;28;21008;-69
2021/04/06 10:20:45;;;;;;;0.77;0.63;;;5.90;93.70;;;8.18;100.00;-20904.91;4974191;28;20783;-68
2021/04/06 10:23:28;;;;;;;0.80;0.70;;;5.70;95.40;;;7.83;100.00;-20895.34;4975113;28;20424;-68
2021/04/06 10:25:55;;;;;;;0.70;0.60;;;5.70;97.40;;;9.42;100.00;-20938.47;4972361;28;20443;-68
2021/04/06 10:28:24;;;;;;;0.80;0.67;;;6.90;94.90;;;11.56;100.00;-20996.44;4970070;28;20463;-69
2021/04/06 10:31:00;;;;;;;0.80;0.70;;;7.60;91.70;;;9.73;100.00;-20946.78;4973704;28;20432;-69
2021/04/06 10:33:31;;;;;;;0.70;0.60;;;7.00;88.60;;;9.15;100.00;-20931.28;4972715;28;20438;-69
2021/04/06 10:36:02;;;;;;;0.70;0.60;;;6.10;91.20;;;6.66;100.00;-20863.41;4970839;28;20418;-67
2021/04/06 10:38:35;;;;;;;1.33;1.23;;;5.20;95.20;;;6.31;100.00;-20853.81;4972969;28;20459;-69
2021/04/06 10:41:06;;;;;;;0.70;0.60;;;4.40;99.90;;;5.04;100.00;-20819.31;4973236;28;20459;-69
2021/04/06 10:43:39;;;;;;;0.70;0.60;;;3.10;99.90;;;3.88;100.00;60762.66;4972682;28;20555;-68
2021/04/06 10:46:12;;;;;;;0.70;0.60;;;2.50;99.90;;;4.19;100.00;101686.28;4971945;28;20210;-68